Dishforth, United Kingdom
Current Conditions -  °F | °C
As of 3:50 PM on Thursday 23 Oct 2014 (Local Time) from EGXD Reporting Station
Broken Clouds Broken Clouds  
Wind Chill: 59°   Ceiling: 2400
Heat Index: 59°   Visibility: 6mi
Dew Point: 54°   Wind: 12mph
Humidity: 82%   Direction: 180°S
Pressure: 29.85"   Gusts: NA
Location:  54.13°N, 1.42°W
Report Text: EGXD 231450Z 18010KT 9999 BKN024 15/12 Q1011 WHT NOSIG
Loading
Personal Weather Stations






























Interactive Weather Map
Tropical Storm Tracking
New forecast layout! Learn more

10-Day Weather Forecast

Advertisements
Track Severe Weather on mobile